createdAt,value
2022-10-09T00:00:30.219Z,2.70
2022-10-09T00:03:21.903Z,3.20
2022-10-09T00:08:24.613Z,3.60
2022-10-09T00:13:27.166Z,3.60
2022-10-09T00:15:59.466Z,3.30
2022-10-09T00:18:31.444Z,3.40
2022-10-09T00:21:03.689Z,2.60
2022-10-09T00:23:35.708Z,6.50
2022-10-09T00:26:09.367Z,4.30
2022-10-09T00:28:41.585Z,3.40
2022-10-09T00:31:14.692Z,2.90
2022-10-09T00:33:46.978Z,3.00
2022-10-09T00:36:21.478Z,3.70
2022-10-09T00:38:54.440Z,2.60
2022-10-09T00:41:28.744Z,2.80
2022-10-09T00:44:03.065Z,2.80
2022-10-09T00:46:43.152Z,2.40
2022-10-09T00:49:22.089Z,2.90
2022-10-09T00:51:55.846Z,3.40
2022-10-09T00:54:33.034Z,2.60
2022-10-09T00:57:05.141Z,3.10
2022-10-09T01:02:07.827Z,3.40
2022-10-09T01:04:40.268Z,3.30
2022-10-09T01:07:32.749Z,3.50
2022-10-09T01:10:12.192Z,2.80
2022-10-09T01:12:55.946Z,2.60
2022-10-09T01:15:33.132Z,2.20
2022-10-09T01:18:12.087Z,2.40
2022-10-09T01:20:50.616Z,2.60
2022-10-09T01:24:07.748Z,2.20
2022-10-09T01:26:54.994Z,2.20
2022-10-09T01:29:33.113Z,2.60
2022-10-09T01:32:06.859Z,2.00
2022-10-09T01:34:42.068Z,2.60
2022-10-09T01:37:15.999Z,2.00
2022-10-09T01:39:50.030Z,2.30
2022-10-09T01:42:24.205Z,2.50
2022-10-09T01:44:56.251Z,2.30
2022-10-09T01:47:29.007Z,2.50
2022-10-09T01:50:10.107Z,2.80
2022-10-09T01:52:49.475Z,2.70
2022-10-09T01:55:35.360Z,2.40
2022-10-09T01:58:12.177Z,2.80
2022-10-09T02:00:48.476Z,2.50
2022-10-09T02:03:21.466Z,3.20
2022-10-09T02:05:56.064Z,2.50
2022-10-09T02:08:29.529Z,3.00
2022-10-09T02:11:03.557Z,2.90
2022-10-09T02:13:39.174Z,2.90
2022-10-09T02:16:18.964Z,2.70
2022-10-09T02:19:00.851Z,3.10
2022-10-09T02:21:39.959Z,3.10
2022-10-09T02:24:16.603Z,3.10
2022-10-09T02:26:48.870Z,2.70
2022-10-09T02:29:21.344Z,3.00
2022-10-09T02:31:54.146Z,2.80
2022-10-09T02:34:26.154Z,3.10
2022-10-09T02:36:58.167Z,3.00
2022-10-09T02:42:00.842Z,3.60
2022-10-09T02:47:03.134Z,3.10
2022-10-09T02:49:35.008Z,2.90
2022-10-09T02:52:07.065Z,3.10
2022-10-09T03:07:59.226Z,3.10
2022-10-09T03:10:31.199Z,3.10
2022-10-09T03:13:03.128Z,3.40
2022-10-09T03:15:38.212Z,3.20
2022-10-09T03:18:10.220Z,3.50
2022-10-09T03:20:42.255Z,3.70
2022-10-09T03:23:14.443Z,3.90
2022-10-09T03:25:46.478Z,3.90
2022-10-09T03:28:18.761Z,4.10
2022-10-09T03:33:21.811Z,4.20
2022-10-09T03:35:53.959Z,3.90
2022-10-09T03:40:58.997Z,2.90
2022-10-09T03:43:31.073Z,3.10
2022-10-09T03:48:37.464Z,2.60
2022-10-09T03:51:09.414Z,3.60
2022-10-09T03:53:41.363Z,4.90
2022-10-09T03:56:13.784Z,6.30
2022-10-09T03:58:45.719Z,6.30
2022-10-09T04:01:17.612Z,6.10
2022-10-09T04:03:49.720Z,6.40
2022-10-09T04:06:21.693Z,5.90
2022-10-09T04:08:53.695Z,6.30
2022-10-09T04:11:25.693Z,6.90
2022-10-09T04:13:57.603Z,7.40
2022-10-09T04:16:29.714Z,6.90
2022-10-09T04:19:01.646Z,7.30
2022-10-09T04:21:34.077Z,5.90
2022-10-09T04:24:08.524Z,5.20
2022-10-09T04:26:40.383Z,5.40
2022-10-09T04:29:13.569Z,6.20
2022-10-09T04:31:45.560Z,5.90
2022-10-09T04:34:17.533Z,5.20
2022-10-09T04:36:49.369Z,5.30
2022-10-09T04:39:21.237Z,6.30
2022-10-09T04:41:53.270Z,6.70
2022-10-09T04:44:25.452Z,6.40
2022-10-09T04:46:57.765Z,5.70
2022-10-09T04:49:29.769Z,4.90
2022-10-09T04:52:01.743Z,3.70
2022-10-09T04:54:33.710Z,4.00
2022-10-09T04:59:36.252Z,4.70
2022-10-09T05:02:08.165Z,4.00
2022-10-09T05:04:40.830Z,4.00
2022-10-09T05:07:13.304Z,4.70
2022-10-09T05:09:45.256Z,5.00
2022-10-09T05:12:17.215Z,5.10
2022-10-09T05:14:49.187Z,5.40
2022-10-09T05:17:23.544Z,5.30
2022-10-09T05:19:56.479Z,5.40
2022-10-09T05:22:28.324Z,6.20
2022-10-09T05:25:00.541Z,6.70
2022-10-09T05:27:32.521Z,8.00
2022-10-09T05:30:04.838Z,9.00
2022-10-09T05:32:36.830Z,7.50
2022-10-09T05:35:09.969Z,7.70
2022-10-09T05:37:44.807Z,8.40
2022-10-09T05:40:16.906Z,10.90
2022-10-09T05:45:22.457Z,11.70
2022-10-09T05:50:25.135Z,15.50
2022-10-09T05:52:57.359Z,17.30
2022-10-09T05:55:29.280Z,22.00
2022-10-09T06:00:32.292Z,16.20
2022-10-09T06:03:04.889Z,15.70
2022-10-09T06:05:36.807Z,11.00
2022-10-09T06:08:08.832Z,7.60
2022-10-09T06:10:40.709Z,7.70
2022-10-09T06:13:12.636Z,6.50
2022-10-09T06:15:54.207Z,5.60
2022-10-09T06:18:26.307Z,5.20
2022-10-09T06:21:00.239Z,4.50
2022-10-09T06:23:32.661Z,4.00
2022-10-09T06:26:06.385Z,3.70
2022-10-09T06:28:39.822Z,2.50
2022-10-09T06:31:14.414Z,2.00
2022-10-09T06:33:48.030Z,2.80
2022-10-09T06:36:21.951Z,2.60
2022-10-09T06:38:54.955Z,2.80
2022-10-09T06:41:29.057Z,2.50
2022-10-09T06:44:04.413Z,2.50
2022-10-09T06:46:42.657Z,2.20
2022-10-09T06:49:15.430Z,2.00
2022-10-09T06:51:47.614Z,2.20
2022-10-09T06:54:19.474Z,1.80
2022-10-09T06:59:23.019Z,1.80
2022-10-09T07:01:57.107Z,1.70
2022-10-09T07:04:29.273Z,1.70
2022-10-09T07:07:03.203Z,1.90
2022-10-09T07:09:35.645Z,1.80
2022-10-09T07:12:08.295Z,1.90
2022-10-09T07:14:40.355Z,1.90
2022-10-09T07:17:12.570Z,2.00
2022-10-09T07:19:44.774Z,2.00
2022-10-09T07:22:16.774Z,1.80
2022-10-09T07:24:49.129Z,1.50
2022-10-09T07:27:21.291Z,1.50
2022-10-09T07:29:54.143Z,1.40
2022-10-09T07:32:26.702Z,1.50
2022-10-09T07:34:58.905Z,1.80
2022-10-09T07:37:31.320Z,1.50
2022-10-09T07:40:03.858Z,1.50
2022-10-09T07:42:36.118Z,1.80
2022-10-09T07:45:11.111Z,1.50
2022-10-09T07:47:43.717Z,1.40
2022-10-09T07:50:16.280Z,1.50
2022-10-09T07:52:48.837Z,1.60
2022-10-09T07:55:21.617Z,1.70
2022-10-09T07:57:54.856Z,1.40
2022-10-09T08:00:30.184Z,2.10
2022-10-09T08:03:02.700Z,1.50
2022-10-09T08:05:34.880Z,1.60
2022-10-09T08:08:07.882Z,1.40
2022-10-09T08:10:39.773Z,1.60
2022-10-09T08:13:11.723Z,1.90
2022-10-09T08:15:44.435Z,1.50
2022-10-09T08:18:16.746Z,2.30
2022-10-09T08:20:58.976Z,1.70
2022-10-09T08:23:31.237Z,1.80
2022-10-09T08:26:03.550Z,1.40
2022-10-09T08:28:35.473Z,1.60
2022-10-09T08:31:15.227Z,1.80
2022-10-09T08:33:47.308Z,1.50
2022-10-09T08:36:19.204Z,1.60
2022-10-09T08:38:51.535Z,1.70
2022-10-09T08:41:39.563Z,1.60
2022-10-09T08:44:18.698Z,1.50
2022-10-09T08:47:00.194Z,1.70
2022-10-09T08:49:40.470Z,1.70
2022-10-09T08:52:38.034Z,1.70
2022-10-09T08:55:19.091Z,1.40
2022-10-09T08:57:53.766Z,1.50
2022-10-09T09:00:28.288Z,1.70
2022-10-09T09:03:31.717Z,1.60
2022-10-09T09:06:10.858Z,1.60
2022-10-09T09:08:53.316Z,1.50
2022-10-09T09:11:35.148Z,1.80
2022-10-09T09:14:31.141Z,1.40
2022-10-09T09:17:13.723Z,1.50
2022-10-09T09:19:57.527Z,1.60
2022-10-09T09:22:31.959Z,1.30
2022-10-09T09:25:18.115Z,1.40
2022-10-09T09:27:50.555Z,1.10
2022-10-09T09:30:26.752Z,1.40
2022-10-09T09:33:07.266Z,1.40
2022-10-09T09:35:47.858Z,1.40
2022-10-09T09:38:20.046Z,1.00
2022-10-09T09:40:52.326Z,1.50
2022-10-09T09:43:26.440Z,1.20
2022-10-09T09:46:00.831Z,2.00
2022-10-09T09:48:37.217Z,1.30
2022-10-09T09:51:27.998Z,1.20
2022-10-09T09:54:05.010Z,1.20
2022-10-09T09:57:06.833Z,6.80
2022-10-09T09:59:37.949Z,4.40
2022-10-09T10:02:16.447Z,2.20
2022-10-09T10:04:54.138Z,1.10
2022-10-09T10:07:34.313Z,2.00
2022-10-09T10:10:14.583Z,1.20
2022-10-09T10:12:49.553Z,1.20
2022-10-09T10:15:27.463Z,1.30
2022-10-09T10:18:02.429Z,1.00
2022-10-09T10:20:44.633Z,1.90
2022-10-09T10:23:39.158Z,2.60
2022-10-09T10:26:21.610Z,1.30
2022-10-09T10:29:00.018Z,1.40
2022-10-09T10:31:43.176Z,1.10
2022-10-09T10:34:22.255Z,1.20
2022-10-09T10:37:03.474Z,1.00
2022-10-09T10:39:51.954Z,1.20
2022-10-09T10:42:28.796Z,0.80
2022-10-09T10:45:09.040Z,0.80
2022-10-09T10:47:46.449Z,1.30
2022-10-09T10:50:20.638Z,1.10
2022-10-09T10:53:07.819Z,0.90
2022-10-09T10:55:52.424Z,0.80
2022-10-09T10:58:30.482Z,1.10
2022-10-09T11:01:20.314Z,1.00
2022-10-09T11:04:11.112Z,0.90
2022-10-09T11:06:51.818Z,1.20
2022-10-09T11:09:31.024Z,1.00
2022-10-09T11:12:24.598Z,0.90
2022-10-09T11:15:17.043Z,1.60
2022-10-09T11:17:56.702Z,1.00
2022-10-09T11:20:53.263Z,1.50
2022-10-09T11:23:40.943Z,1.40
2022-10-09T11:26:23.946Z,1.10
2022-10-09T11:29:01.883Z,1.50
2022-10-09T11:31:37.751Z,1.10
2022-10-09T11:34:15.774Z,0.70
2022-10-09T11:36:48.705Z,1.20
2022-10-09T11:39:23.751Z,0.80
2022-10-09T11:41:56.916Z,0.90
2022-10-09T11:44:40.648Z,0.90
2022-10-09T11:47:22.842Z,0.70
2022-10-09T11:52:37.950Z,0.60
2022-10-09T11:55:22.113Z,1.00
2022-10-09T11:57:54.183Z,0.80
2022-10-09T12:00:34.797Z,0.90
2022-10-09T12:03:08.647Z,0.70
2022-10-09T12:05:45.484Z,0.60
2022-10-09T12:08:26.501Z,3.40
2022-10-09T12:11:08.136Z,7.40
2022-10-09T12:16:41.257Z,1.60
2022-10-09T12:19:21.779Z,0.70
2022-10-09T12:22:03.850Z,0.90
2022-10-09T12:24:40.900Z,1.10
2022-10-09T12:27:23.618Z,1.00
2022-10-09T12:32:35.708Z,0.60
2022-10-09T12:35:19.797Z,1.00
2022-10-09T12:37:57.912Z,0.80
2022-10-09T12:40:34.207Z,0.90
2022-10-09T12:43:11.324Z,1.10
2022-10-09T12:45:49.267Z,0.90
2022-10-09T12:48:25.871Z,1.30
2022-10-09T12:50:59.219Z,0.70
2022-10-09T12:53:31.420Z,0.90
2022-10-09T12:56:04.072Z,1.10
2022-10-09T12:58:39.029Z,1.10
2022-10-09T13:01:17.121Z,11.90
2022-10-09T13:03:59.028Z,2.60
2022-10-09T13:06:42.160Z,1.70
2022-10-09T13:09:23.357Z,1.90
2022-10-09T13:11:59.296Z,1.00
2022-10-09T13:14:37.746Z,0.90
2022-10-09T13:17:26.592Z,1.00
2022-10-09T13:20:03.942Z,1.70
2022-10-09T13:22:39.489Z,1.30
2022-10-09T13:25:15.982Z,1.00
2022-10-09T13:27:52.748Z,2.20
2022-10-09T13:30:27.228Z,1.30
2022-10-09T13:33:00.487Z,45.70
2022-10-09T13:35:33.167Z,13.30
2022-10-09T13:38:06.685Z,3.00
2022-10-09T13:40:41.081Z,1.50
2022-10-09T13:43:19.622Z,1.10
2022-10-09T13:45:51.746Z,1.00
2022-10-09T13:48:25.576Z,35.40
2022-10-09T13:50:59.184Z,3.70
2022-10-09T13:53:31.476Z,2.30
2022-10-09T13:58:33.760Z,1.90
2022-10-09T14:03:36.311Z,1.00
2022-10-09T14:08:39.031Z,3.50
2022-10-09T14:11:11.072Z,3.20
2022-10-09T14:16:13.561Z,1.00
2022-10-09T14:18:45.509Z,0.70
2022-10-09T14:21:18.206Z,29.00
2022-10-09T14:23:53.070Z,1.50
2022-10-09T14:26:25.930Z,0.90
2022-10-09T14:28:59.991Z,0.90
2022-10-09T14:31:32.588Z,0.60
2022-10-09T14:34:04.595Z,0.80
2022-10-09T14:36:37.233Z,0.80
2022-10-09T14:39:09.375Z,0.70
2022-10-09T14:41:41.603Z,0.80
2022-10-09T14:46:43.884Z,1.90
2022-10-09T14:51:46.353Z,0.90
2022-10-09T14:54:18.277Z,0.80
2022-10-09T14:59:20.820Z,0.80
2022-10-09T15:04:23.670Z,1.40
2022-10-09T15:06:55.822Z,0.80
2022-10-09T15:09:27.857Z,0.90
2022-10-09T15:12:00.096Z,1.10
2022-10-09T15:14:31.852Z,0.70
2022-10-09T15:17:03.747Z,0.60
2022-10-09T15:19:35.969Z,0.70
2022-10-09T15:22:08.142Z,0.80
2022-10-09T15:24:41.468Z,0.90
2022-10-09T15:27:13.529Z,0.70
2022-10-09T15:32:15.941Z,0.80
2022-10-09T15:34:48.492Z,1.00
2022-10-09T15:37:20.767Z,0.90
2022-10-09T15:39:52.783Z,0.80
2022-10-09T15:42:24.837Z,0.90
2022-10-09T15:47:50.084Z,0.70
2022-10-09T15:50:19.558Z,0.90
2022-10-09T15:55:22.636Z,0.60
2022-10-09T16:00:25.103Z,1.10
2022-10-09T16:08:00.199Z,1.20
2022-10-09T16:13:03.232Z,0.80
2022-10-09T16:15:35.642Z,1.30
2022-10-09T16:18:08.884Z,1.60
2022-10-09T16:20:42.073Z,1.20
2022-10-09T16:23:15.360Z,0.90
2022-10-09T16:25:57.117Z,0.90
2022-10-09T16:28:30.146Z,0.80
2022-10-09T16:31:02.394Z,0.70
2022-10-09T16:33:34.545Z,1.90
2022-10-09T16:36:13.706Z,0.90
2022-10-09T16:38:45.880Z,0.80
2022-10-09T16:41:21.037Z,0.70
2022-10-09T16:43:55.374Z,0.90
2022-10-09T16:46:29.843Z,0.70
2022-10-09T16:49:03.388Z,1.10
2022-10-09T16:51:38.419Z,0.90
2022-10-09T16:54:11.480Z,1.10
2022-10-09T16:56:43.510Z,1.00
2022-10-09T16:59:15.752Z,1.40
2022-10-09T17:01:49.713Z,0.90
2022-10-09T17:04:22.384Z,1.40
2022-10-09T17:06:54.698Z,1.70
2022-10-09T17:09:29.526Z,2.20
2022-10-09T17:12:01.697Z,4.90
2022-10-09T17:17:04.326Z,4.90
2022-10-09T17:19:37.039Z,4.10
2022-10-09T17:22:09.452Z,2.30
2022-10-09T17:24:41.469Z,1.30
2022-10-09T17:27:13.319Z,1.00
2022-10-09T17:29:45.741Z,1.20
2022-10-09T17:32:18.021Z,1.40
2022-10-09T17:34:51.585Z,2.50
2022-10-09T17:37:23.606Z,1.20
2022-10-09T17:42:28.936Z,1.50
2022-10-09T17:45:02.025Z,3.60
2022-10-09T17:47:35.948Z,3.70
2022-10-09T17:50:10.245Z,2.80
2022-10-09T17:52:42.533Z,1.80
2022-10-09T17:55:14.834Z,2.00
2022-10-09T17:57:47.403Z,1.60
2022-10-09T18:00:25.370Z,1.60
2022-10-09T18:02:58.575Z,1.40
2022-10-09T18:05:31.416Z,3.30
2022-10-09T18:08:03.371Z,1.80
2022-10-09T18:13:10.792Z,4.30
2022-10-09T18:15:44.594Z,7.70
2022-10-09T18:18:17.093Z,6.10
2022-10-09T18:20:51.442Z,5.50
2022-10-09T18:23:23.628Z,4.60
2022-10-09T18:25:55.910Z,2.50
2022-10-09T18:31:10.102Z,1.50
2022-10-09T18:33:43.292Z,2.10
2022-10-09T18:36:22.108Z,2.30
2022-10-09T18:38:59.511Z,3.60
2022-10-09T18:41:34.150Z,4.30
2022-10-09T18:44:12.541Z,5.00
2022-10-09T18:46:49.417Z,6.00
2022-10-09T18:49:34.166Z,6.10
2022-10-09T18:52:07.923Z,9.00
2022-10-09T18:54:43.314Z,6.90
2022-10-09T18:57:21.582Z,6.80
2022-10-09T18:59:59.230Z,8.50
2022-10-09T19:02:34.778Z,8.10
2022-10-09T19:05:10.884Z,8.60
2022-10-09T19:07:47.626Z,8.40
2022-10-09T19:10:20.459Z,8.60
2022-10-09T19:12:54.740Z,8.90
2022-10-09T19:15:27.488Z,10.80
2022-10-09T19:18:00.232Z,7.70
2022-10-09T19:20:36.500Z,7.30
2022-10-09T19:23:13.941Z,8.80
2022-10-09T19:25:52.894Z,8.70
2022-10-09T19:28:27.912Z,10.10
2022-10-09T19:31:02.552Z,9.80
2022-10-09T19:33:38.984Z,10.30
2022-10-09T19:36:17.422Z,12.50
2022-10-09T19:38:49.680Z,13.40
2022-10-09T19:41:21.890Z,12.10
2022-10-09T19:43:53.992Z,15.90
2022-10-09T19:46:28.727Z,20.40
2022-10-09T19:49:02.105Z,15.70
2022-10-09T19:51:38.820Z,13.40
2022-10-09T19:54:11.782Z,13.20
2022-10-09T19:56:43.944Z,9.90
2022-10-09T19:59:16.185Z,10.00
2022-10-09T20:04:19.280Z,9.10
2022-10-09T20:06:51.292Z,8.60
2022-10-09T20:09:23.389Z,8.10
2022-10-09T20:14:26.840Z,10.20
2022-10-09T20:16:58.976Z,9.20
2022-10-09T20:19:31.663Z,10.10
2022-10-09T20:22:03.826Z,11.40
2022-10-09T20:27:06.324Z,10.70
2022-10-09T20:29:38.428Z,9.80
2022-10-09T20:34:44.401Z,7.50
2022-10-09T20:37:16.522Z,9.30
2022-10-09T20:39:49.193Z,9.40
2022-10-09T20:42:21.056Z,9.20
2022-10-09T20:44:53.191Z,8.70
2022-10-09T20:47:25.062Z,8.80
2022-10-09T20:49:56.989Z,7.70
2022-10-09T20:52:28.940Z,7.30
2022-10-09T20:55:00.920Z,7.90
2022-10-09T20:57:32.956Z,7.50
2022-10-09T21:00:05.634Z,8.20
2022-10-09T21:02:37.821Z,8.80
2022-10-09T21:05:11.788Z,9.00
2022-10-09T21:07:43.864Z,8.80
2022-10-09T21:12:46.521Z,8.00
2022-10-09T21:15:18.752Z,7.40
2022-10-09T21:17:50.868Z,7.40
2022-10-09T21:20:25.423Z,8.00
2022-10-09T21:22:57.313Z,9.10
2022-10-09T21:25:29.178Z,8.00
2022-10-09T21:28:01.293Z,7.40
2022-10-09T21:33:03.886Z,8.50
2022-10-09T21:35:41.427Z,7.80
2022-10-09T21:38:16.279Z,8.20
2022-10-09T21:40:49.992Z,8.90
2022-10-09T21:43:21.933Z,9.00
2022-10-09T21:45:54.007Z,8.50
2022-10-09T21:50:57.576Z,8.80
2022-10-09T21:53:29.470Z,9.60
2022-10-09T21:56:02.974Z,9.70
2022-10-09T21:58:35.054Z,10.10
2022-10-09T22:01:08.349Z,10.60
2022-10-09T22:03:41.040Z,11.20
2022-10-09T22:06:19.074Z,10.30
2022-10-09T22:08:51.616Z,10.30
2022-10-09T22:11:23.581Z,10.30
2022-10-09T22:13:55.783Z,9.80
2022-10-09T22:16:28.493Z,9.70
2022-10-09T22:19:02.724Z,11.10
2022-10-09T22:21:34.709Z,10.00
2022-10-09T22:24:06.962Z,9.20
2022-10-09T22:29:09.271Z,11.30
2022-10-09T22:31:41.205Z,12.40
2022-10-09T22:34:13.185Z,12.40
2022-10-09T22:36:48.227Z,11.50
2022-10-09T22:39:20.451Z,10.50
2022-10-09T22:44:22.744Z,10.80
2022-10-09T22:46:54.985Z,9.90
2022-10-09T22:51:57.521Z,10.10
2022-10-09T22:54:31.605Z,9.70
2022-10-09T22:57:03.975Z,8.80
2022-10-09T22:59:36.077Z,11.20
2022-10-09T23:02:08.163Z,10.50
2022-10-09T23:07:10.744Z,11.70
2022-10-09T23:09:43.056Z,10.10
2022-10-09T23:14:48.197Z,9.70
2022-10-09T23:17:20.382Z,9.70
2022-10-09T23:19:52.306Z,9.90
2022-10-09T23:22:24.402Z,10.30
2022-10-09T23:24:56.323Z,11.70
2022-10-09T23:27:28.571Z,11.20
2022-10-09T23:30:00.858Z,10.40
2022-10-09T23:32:33.161Z,12.00
2022-10-09T23:35:05.528Z,10.40
2022-10-09T23:37:37.845Z,11.40
2022-10-09T23:40:11.129Z,10.70
2022-10-09T23:42:42.955Z,10.30
2022-10-09T23:45:15.153Z,10.10
2022-10-09T23:47:47.152Z,10.50
2022-10-09T23:50:19.006Z,9.70
2022-10-09T23:52:51.407Z,9.10
2022-10-09T23:55:23.777Z,10.10
2022-10-09T23:57:55.616Z,10.70
